Latest Coastal Weather Observations for Flinders Island Airport

IDV60701

Issued at 10:01 pm EST Tuesday 1 September 2015 (issued every 10 minutes, with the page automatically refreshed every 10 minutes)

About coastal observations | Map of coastal stations | Coastal observations for VIC | Marine services | Other Formats
Station Details ID: 099005 Name: FLINDERS ISLAND AIRPORT Lat: -40.09 Lon: 148.00 Height: 9.0 m
Data from the previous 72 hours. | See also: Recent months at Flinders Island Airport
Date/Time
EST
Temp

°C
Wind Pressure Rain
since 9am
mm
Weather Cloud Vis
km
Sea
Height
m
Swell
Dir
 
Speed
knots
Gust
knots
hPa Trend Height
m
Period
s
Dir
01/10:00pm 2.3 NE 6 7 1015.8 - 0.0 - Partly cloudy 10 - - - -
01/09:55pm 2.6 NE 6 7 1015.8 - 0.0 - Partly cloudy 10 - - - -
01/09:40pm 2.6 NE 6 8 1015.8 - 0.0 - Partly cloudy 10 - - - -
01/09:30pm 2.4 NE 6 7 1015.7 - 0.0 - Partly cloudy 10 - - - -
01/09:15pm 2.5 NE 7 8 1015.6 - 0.0 - Partly cloudy 10 - - - -
01/09:00pm 3.2 NE 5 7 1015.6 - 0.0 - Mostly clear 10 - - - -
01/08:30pm 2.3 NE 5 7 1015.2 - 0.0 - - 10 - - - -
01/08:00pm 3.0 NE 5 7 1014.7 - 0.0 - - 10 - - - -
01/07:30pm 4.0 NE 5 6 1014.5 - 0.0 - - 10 - - - -
01/07:00pm 4.4 NE 4 5 1014.3 - 0.0 - - 10 - - - -
01/06:30pm 6.3 SSW 5 6 1014.4 - 0.0 - Partly cloudy 10 - - - -
01/06:00pm 8.4 SW 5 6 1014.4 - 0.0 - - 10 - - - -
01/05:30pm 9.5 SW 7 8 1014.3 - 0.0 - - 10 - - - -
01/05:14pm 10.0 SW 8 9 1014.2 - 0.0 - Partly cloudy 10 - - - -
01/05:00pm 10.7 SW 8 10 1014.2 - 0.0 - Partly cloudy 10 - - - -
01/04:42pm 10.7 SW 7 9 1014.2 - 0.0 - Partly cloudy 10 - - - -
01/04:30pm 10.5 WSW 6 8 1014.1 - 0.0 - Partly cloudy 10 - - - -
01/04:00pm 11.4 WSW 8 9 1014.3 - 0.0 - Partly cloudy 10 - - - -
01/03:54pm 11.1 WSW 8 9 1014.3 - 0.0 - Partly cloudy 10 - - - -
01/03:30pm 11.0 W 8 9 1014.5 - 0.0 - Partly cloudy 10 - - - -
01/03:21pm 11.6 WSW 8 9 1014.5 - 0.0 - Partly cloudy 10 - - - -
01/03:00pm 11.9 WSW 9 12 1014.7 - 0.0 - - 10 - - - -
01/02:30pm 11.7 WSW 10 12 1014.8 - 0.0 - - 10 - - - -
01/02:00pm 12.2 WSW 10 11 1014.8 - 0.0 - Partly cloudy 10 - - - -
01/01:48pm 11.8 WSW 10 12 1014.7 - 0.0 - Partly cloudy 10 - - - -
01/01:30pm 12.0 WSW 10 12 1014.7 - 0.0 - Partly cloudy 10 - - - -
01/01:00pm 11.6 SW 8 10 1014.8 - 0.0 - Partly cloudy 10 - - - -
01/12:30pm 11.7 SW 8 10 1015.1 - 0.0 - Partly cloudy 10 - - - -
01/12:00pm 11.3 SW 8 10 1015.5 - 0.0 - Cloudy 10 - - - -
01/11:30am 11.1 WSW 8 10 1015.7 - 0.0 - Cloudy 10 - - - -
01/11:00am 11.2 WSW 8 9 1015.7 - 0.0 - Cloudy 10 - - - -
01/10:30am 11.2 WSW 9 11 1015.7 - 0.0 - Cloudy 10 - - - -
01/10:00am 11.3 WSW 9 11 1015.8 - 0.0 - Partly cloudy 10 - - - -
01/09:40am 10.8 WSW 10 13 1015.8 - 0.0 - Partly cloudy 10 - - - -
01/09:30am 10.9 WSW 11 14 1015.8 - 0.0 - Partly cloudy 10 - - - -
01/09:00am 10.5 WSW 11 14 1015.9 - 0.0 - Mostly clear 10 - - - -
01/08:44am 10.5 WSW 12 14 1015.8 - 0.0 - Partly cloudy 10 - - - -
01/08:30am 10.0 WSW 10 12 1015.8 - 0.0 - Partly cloudy 10 - - - -
01/08:00am 10.2 WSW 10 12 1015.8 - 0.0 - Cloudy 10 - - - -
01/07:30am 9.7 SW 9 13 1015.7 - 0.0 - Cloudy 10 - - - -
01/07:00am 9.4 WSW 11 13 1015.6 - 0.0 - Cloudy 10 - - - -
01/06:30am 8.9 WSW 9 12 1015.5 - 0.0 - Partly cloudy 10 - - - -
01/06:00am 9.4 WSW 11 13 1015.4 - 0.0 - Cloudy 10 - - - -
01/05:30am 5.8 WSW 9 12 1015.4 - 0.0 - Partly cloudy 10 - - - -
01/05:23am 4.1 WSW 7 8 1015.5 - 0.0 - Partly cloudy 10 - - - -
01/05:00am 4.9 ESE 3 5 1015.5 - 0.0 - - 10 - - - -
01/04:30am 8.9 WSW 9 11 1015.5 - 0.0 - - 10 - - - -
01/04:00am 9.3 WSW 10 13 1015.5 - 0.0 - - 10 - - - -
01/03:30am 9.3 SW 9 12 1015.4 - 0.0 - - 10 - - - -
01/03:00am 9.5 SW 9 11 1015.5 - 0.0 - - 10 - - - -
01/02:30am 9.6 SW 10 12 1015.6 - 0.0 - Partly cloudy 10 - - - -
01/02:00am 10.3 SW 10 13 1016.1 - 0.0 - Cloudy 10 - - - -
01/01:30am 10.2 SW 11 14 1016.4 - 0.0 - Cloudy 10 - - - -
01/01:00am 10.3 SW 12 15 1016.4 - 0.0 - Cloudy 10 - - - -
01/12:30am 10.3 SW 11 14 1016.6 - 0.0 - Cloudy 10 - - - -
01/12:00am 10.4 SW 11 15 1016.7 - 0.0 - Cloudy 10 - - - -
 
Date/Time
EST
Temp

°C
Wind Pressure Rain
since 9am
mm
Weather Cloud Vis
km
Sea
Height
m
Swell
Dir
 
Speed
knots
Gust
knots
hPa Trend Height
m
Period
s
Dir
31/11:30pm 10.4 SW 12 15 1016.8 - 0.0 - Partly cloudy 10 - - - -
31/11:00pm 10.4 SW 11 14 1017.0 - 0.0 - Partly cloudy 10 - - - -
31/10:30pm 10.4 SSW 7 9 1017.2 - 0.0 - Cloudy 10 - - - -
31/10:00pm 10.2 SSW 7 8 1017.3 - 0.0 - Cloudy 10 - - - -
31/09:30pm 9.9 SW 5 7 1017.5 - 0.0 - Cloudy 10 - - - -
31/09:00pm 9.6 SW 7 7 1017.6 - 0.0 - Cloudy 10 - - - -
31/08:30pm 9.9 WSW 7 9 1017.6 - 0.0 - Cloudy 10 - - - -
31/08:00pm 9.9 SW 8 10 1017.7 - 0.0 - Cloudy 10 - - - -
31/07:30pm 10.0 SW 9 10 1017.8 - 0.0 - Partly cloudy 10 - - - -
31/07:00pm 9.9 SW 8 9 1017.7 - 0.0 - Partly cloudy 10 - - - -
31/06:30pm 9.6 SW 7 9 1017.5 - 0.0 - Partly cloudy 10 - - - -
31/06:00pm 9.7 SW 9 10 1017.5 - 0.0 - Partly cloudy 10 - - - -
31/05:30pm 10.3 WSW 9 10 1017.4 - 0.0 - - 10 - - - -
31/05:00pm 10.9 WSW 9 11 1017.5 - 0.0 - Partly cloudy 10 - - - -
31/04:30pm 11.1 WSW 9 11 1017.5 - 0.0 - Partly cloudy 10 - - - -
31/04:00pm 11.6 WSW 11 13 1017.4 - 0.0 - Partly cloudy 10 - - - -
31/03:30pm 11.7 WSW 9 11 1017.4 - 0.0 - Partly cloudy 10 - - - -
31/03:00pm 11.9 WSW 10 13 1017.7 - 0.0 - Mostly clear 10 - - - -
31/02:30pm 12.1 SW 11 14 1017.7 - 0.0 - - 10 - - - -
31/02:00pm 12.3 SSW 10 12 1018.0 - 0.0 - - 10 - - - -
31/01:30pm 12.4 SW 11 15 1018.2 - 0.0 - Partly cloudy 10 - - - -
31/01:00pm 12.8 SSW 14 17 1018.2 - 0.0 - - 10 - - - -
31/12:30pm 11.9 SSW 14 16 1018.5 - 0.0 - - 10 - - - -
31/12:00pm 12.1 S 14 17 1018.8 - 0.0 - - 10 - - - -
31/11:30am 12.7 S 14 18 1019.0 - 0.0 - - 10 - - - -
31/11:00am 11.7 SSW 13 16 1019.3 - 0.0 - - 10 - - - -
31/10:30am 11.1 S 10 15 1019.5 - 0.0 - Partly cloudy 10 - - - -
31/10:00am 10.9 S 13 19 1019.6 - 0.0 - Partly cloudy 10 - - - -
31/09:30am 11.1 S 11 15 1019.7 - 0.0 - - 10 - - - -
31/09:00am 10.7 S 8 11 1019.7 - 0.0 - - 10 - - - -
31/08:30am 10.3 SSE 6 9 1019.8 - 0.0 - - 10 - - - -
31/08:00am 9.7 ESE 6 9 1019.9 - 0.0 - - 10 - - - -
31/07:30am 8.8 S 9 14 1019.8 - 0.0 - - 10 - - - -
31/07:00am 7.4 S 8 14 1019.6 - 0.0 - - 10 - - - -
31/06:30am 8.0 S 10 15 1019.5 - 0.0 - - 10 - - - -
31/06:00am 8.5 S 9 14 1019.5 - 0.0 - - 10 - - - -
31/05:30am 8.9 S 13 18 1019.5 - 0.0 - - 10 - - - -
31/05:00am 8.4 S 8 13 1019.7 - 0.0 - - 10 - - - -
31/04:30am 9.0 S 8 12 1019.7 - 0.0 - Partly cloudy 10 - - - -
31/04:00am 9.6 S 9 13 1019.7 - 0.0 - Partly cloudy 10 - - - -
31/03:30am 9.7 S 8 13 1019.9 - 0.0 - Cloudy 10 - - - -
31/03:00am 9.8 S 7 12 1020.0 - 0.0 - Cloudy 10 - - - -
31/02:30am 10.0 S 8 13 1020.3 - 0.0 - Partly cloudy 10 - - - -
31/02:00am 10.0 S 9 14 1020.6 - 0.0 - Partly cloudy 10 - - - -
31/01:30am 10.0 SSW 8 10 1020.8 - 0.0 - Partly cloudy 10 - - - -
31/01:00am 9.8 SW 9 10 1021.0 - 0.0 - Partly cloudy 10 - - - -
31/12:30am 9.5 SW 9 11 1021.2 - 0.0 - Partly cloudy 10 - - - -
31/12:00am 8.9 WSW 10 12 1021.3 - 0.0 - Cloudy 10 - - - -
 
Date/Time
EST
Temp

°C
Wind Pressure Rain
since 9am
mm
Weather Cloud Vis
km
Sea
Height
m
Swell
Dir
 
Speed
knots
Gust
knots
hPa Trend Height
m
Period
s
Dir
30/11:30pm 5.8 W 6 12 1021.6 - 0.0 - Partly cloudy 10 - - - -
30/11:00pm 6.1 CALM 0 0 1021.9 - 0.0 - Partly cloudy 10 - - - -
30/10:30pm 6.4 E 3 4 1022.1 - 0.0 - Cloudy 10 - - - -
30/10:00pm 6.2 N 1 5 1022.2 - 0.0 - Cloudy 10 - - - -
30/09:30pm 6.6 NW 5 6 1022.3 - 0.0 - Partly cloudy 10 - - - -
30/09:00pm 7.2 NNW 1 4 1022.4 - 0.0 - Cloudy 10 - - - -
30/08:30pm 7.1 NW 5 6 1022.4 - 0.0 - Partly cloudy 10 - - - -
30/08:00pm 8.2 SSW 2 4 1022.4 - 0.0 - Cloudy 10 - - - -
30/07:30pm 8.2 SE 4 6 1022.2 - 0.0 - Cloudy 10 - - - -
30/07:00pm 8.4 CALM 0 3 1022.1 - 0.0 - Partly cloudy 10 - - - -
30/06:30pm 9.2 NW 7 9 1021.9 - 0.0 - Cloudy 10 - - - -
30/06:00pm 9.5 NW 6 8 1021.9 - 0.0 - Mostly cloudy 10 - - - -
30/05:30pm 10.2 WNW 8 9 1021.8 - 0.0 - Cloudy 10 - - - -
30/05:00pm 11.0 WNW 8 9 1021.7 - 0.0 - Cloudy 10 - - - -
30/04:30pm 11.0 W 7 9 1021.7 - 0.0 - Partly cloudy 10 - - - -
30/04:00pm 11.2 WNW 9 12 1021.7 - 0.0 - - 10 - - - -
30/03:30pm 11.4 WNW 10 13 1021.7 - 0.0 - - 10 - - - -
30/03:00pm 11.7 W 11 14 1021.7 - 0.0 - - 10 - - - -
30/02:30pm 12.1 WNW 10 13 1021.6 - 0.0 - - 10 - - - -
30/02:00pm 11.9 WSW 7 10 1021.6 - 0.0 - - 10 - - - -
30/01:30pm 11.4 W 6 7 1021.8 - 0.0 - Partly cloudy 10 - - - -
30/01:00pm 11.1 WSW 5 8 1022.2 - 0.0 - Cloudy 10 - - - -
30/12:30pm 11.7 SW 7 9 1022.5 - 0.0 - Partly cloudy 10 - - - -
30/12:00pm 11.3 SW 6 8 1022.9 - 0.0 - Mostly clear 10 - - - -
30/11:30am 11.4 SSW 8 13 1023.5 - 0.0 - Partly cloudy 10 - - - -
30/11:00am 10.8 SW 9 14 1023.5 - 0.0 - Partly cloudy 10 - - - -
30/10:30am 10.8 SW 10 13 1023.5 - 0.0 - - 10 - - - -
30/10:00am 10.9 SW 10 16 1023.6 - 0.0 - Partly cloudy 10 - - - -
30/09:30am 10.9 S 12 16 1023.6 - 0.0 - Partly cloudy 10 - - - -
30/09:00am 10.4 S 14 18 1023.7 - 0.0 - - 10 - - - -
30/08:30am 9.6 SSE 13 21 1023.7 - 0.0 - - 10 - - - -
30/08:00am 8.9 SSE 8 17 1023.6 - 0.0 - - 10 - - - -
30/07:30am 8.0 SSE 11 20 1023.2 - 0.0 - - 10 - - - -
30/07:00am 7.7 SSE 11 19 1023.0 - 0.0 - - 10 - - - -
30/06:30am 7.7 S 14 20 1022.5 - 0.0 - Partly cloudy 10 - - - -
30/06:00am 7.6 S 13 18 1022.3 - 0.0 - - 10 - - - -
30/05:30am 7.8 S 13 21 1022.1 - 0.0 - - 10 - - - -
30/05:00am 8.0 S 11 16 1021.9 - 0.0 - - 10 - - - -
30/04:30am 8.3 S 12 19 1021.7 - 0.0 - - 10 - - - -
30/04:00am 6.9 SE 7 17 1021.5 - 0.0 - - 10 - - - -
30/03:30am 4.0 ESE 3 8 1021.7 - 0.0 - - 10 - - - -
30/03:00am 4.5 E 4 5 1021.8 - 0.0 - - 10 - - - -
30/02:30am 6.9 SE 4 6 1021.8 - 0.0 - - 10 - - - -
30/02:00am 7.8 ESE 5 7 1021.9 - 0.0 - Partly cloudy 10 - - - -
30/01:30am 8.3 SSE 6 10 1022.2 - 0.0 - Partly cloudy 10 - - - -
30/01:00am 9.3 S 10 14 1022.1 - 0.0 - Partly cloudy 10 - - - -
30/12:30am 9.8 S 13 19 1022.5 - 0.0 - Partly cloudy 10 - - - -
30/12:00am 9.9 S 15 21 1022.3 - 0.0 - Partly cloudy 10 - - - -
 
Date/Time
EST
Temp

°C
Wind Pressure Rain
since 9am
mm
Weather Cloud Vis
km
Sea
Height
m
Swell
Dir
 
Speed
knots
Gust
knots
hPa Trend Height
m
Period
s
Dir
29/11:30pm 9.6 S 16 26 1022.3 - 0.0 - - 10 - - - -
29/11:01pm 9.8 S 16 26 1022.4 - 0.0 - Partly cloudy 10 - - - -
29/11:00pm 9.9 S 16 24 1022.4 - 0.0 - Partly cloudy 10 - - - -
29/10:30pm 10.0 S 14 21 1022.4 - 0.0 - - 10 - - - -

Other Formats:

Comma delimited format used in spreadsheet applications
http://www.bom.gov.au/fwo/IDV60701/IDV60701.94980.axf

JavaScript Object Notation format (JSON) in row-major order
http://www.bom.gov.au/fwo/IDV60701/IDV60701.94980.json